sensor_id;sensor_type;location;lat;lon;timestamp;P1;durP1;ratioP1;P2;durP2;ratioP2
59828;SDS011;45708;51.848;107.620;2023-05-09T00:02:23;24.42;;;16.52;;
59828;SDS011;45708;51.848;107.620;2023-05-09T00:07:23;21.58;;;13.35;;
59828;SDS011;45708;51.848;107.620;2023-05-09T00:12:25;22.83;;;13.35;;
59828;SDS011;45708;51.848;107.620;2023-05-09T00:17:26;24.20;;;12.57;;
59828;SDS011;45708;51.848;107.620;2023-05-09T00:22:27;18.20;;;11.55;;
59828;SDS011;45708;51.848;107.620;2023-05-09T00:27:28;15.10;;;9.57;;
59828;SDS011;45708;51.848;107.620;2023-05-09T00:32:29;17.85;;;9.98;;
59828;SDS011;45708;51.848;107.620;2023-05-09T00:37:30;17.67;;;9.63;;
59828;SDS011;45708;51.848;107.620;2023-05-09T00:42:30;12.90;;;9.30;;
59828;SDS011;45708;51.848;107.620;2023-05-09T00:47:32;17.20;;;9.65;;
59828;SDS011;45708;51.848;107.620;2023-05-09T00:52:33;15.25;;;9.43;;
59828;SDS011;45708;51.848;107.620;2023-05-09T00:57:35;11.38;;;7.97;;
59828;SDS011;45708;51.848;107.620;2023-05-09T01:02:36;13.00;;;9.02;;
59828;SDS011;45708;51.848;107.620;2023-05-09T01:13:22;16.38;;;9.15;;
59828;SDS011;45708;51.848;107.620;2023-05-09T01:28:59;19.15;;;10.10;;
59828;SDS011;45708;51.848;107.620;2023-05-09T01:34:17;17.98;;;9.85;;
59828;SDS011;45708;51.848;107.620;2023-05-09T01:39:20;13.60;;;8.82;;
59828;SDS011;45708;51.848;107.620;2023-05-09T01:44:23;10.55;;;7.80;;
59828;SDS011;45708;51.848;107.620;2023-05-09T01:49:27;16.95;;;8.18;;
59828;SDS011;45708;51.848;107.620;2023-05-09T01:54:30;14.52;;;8.07;;
59828;SDS011;45708;51.848;107.620;2023-05-09T01:59:33;14.55;;;7.45;;
59828;SDS011;45708;51.848;107.620;2023-05-09T02:04:35;10.73;;;7.70;;
59828;SDS011;45708;51.848;107.620;2023-05-09T02:09:37;13.48;;;8.85;;
59828;SDS011;45708;51.848;107.620;2023-05-09T02:14:38;16.83;;;9.13;;
59828;SDS011;45708;51.848;107.620;2023-05-09T02:19:38;11.80;;;7.65;;
59828;SDS011;45708;51.848;107.620;2023-05-09T02:24:39;12.45;;;9.15;;
59828;SDS011;45708;51.848;107.620;2023-05-09T02:29:42;14.52;;;8.93;;
59828;SDS011;45708;51.848;107.620;2023-05-09T02:34:46;15.48;;;8.50;;
59828;SDS011;45708;51.848;107.620;2023-05-09T02:39:50;12.02;;;7.97;;
59828;SDS011;45708;51.848;107.620;2023-05-09T02:44:51;16.25;;;8.40;;
59828;SDS011;45708;51.848;107.620;2023-05-09T02:49:52;11.85;;;7.78;;
59828;SDS011;45708;51.848;107.620;2023-05-09T02:54:53;12.50;;;7.80;;
59828;SDS011;45708;51.848;107.620;2023-05-09T02:59:54;17.20;;;9.30;;
59828;SDS011;45708;51.848;107.620;2023-05-09T03:04:54;11.52;;;7.50;;
59828;SDS011;45708;51.848;107.620;2023-05-09T03:09:55;10.80;;;7.78;;
59828;SDS011;45708;51.848;107.620;2023-05-09T03:14:57;9.30;;;7.68;;
59828;SDS011;45708;51.848;107.620;2023-05-09T03:19:58;11.45;;;7.47;;
59828;SDS011;45708;51.848;107.620;2023-05-09T03:24:59;12.63;;;8.20;;
59828;SDS011;45708;51.848;107.620;2023-05-09T03:30:00;11.38;;;7.70;;
59828;SDS011;45708;51.848;107.620;2023-05-09T03:35:00;11.95;;;8.38;;
59828;SDS011;45708;51.848;107.620;2023-05-09T03:40:01;11.10;;;7.40;;
59828;SDS011;45708;51.848;107.620;2023-05-09T03:45:02;13.38;;;8.35;;
59828;SDS011;45708;51.848;107.620;2023-05-09T03:50:03;9.57;;;7.72;;
59828;SDS011;45708;51.848;107.620;2023-05-09T03:55:05;17.02;;;8.45;;
59828;SDS011;45708;51.848;107.620;2023-05-09T04:00:06;13.48;;;8.75;;
59828;SDS011;45708;51.848;107.620;2023-05-09T04:05:07;9.43;;;8.27;;
59828;SDS011;45708;51.848;107.620;2023-05-09T04:10:08;10.95;;;7.88;;
59828;SDS011;45708;51.848;107.620;2023-05-09T04:15:10;12.63;;;7.80;;
59828;SDS011;45708;51.848;107.620;2023-05-09T04:20:10;13.32;;;8.00;;
59828;SDS011;45708;51.848;107.620;2023-05-09T04:25:12;12.93;;;8.60;;
59828;SDS011;45708;51.848;107.620;2023-05-09T04:30:12;11.45;;;7.95;;
59828;SDS011;45708;51.848;107.620;2023-05-09T04:35:14;14.90;;;8.60;;
59828;SDS011;45708;51.848;107.620;2023-05-09T04:40:15;13.05;;;8.05;;
59828;SDS011;45708;51.848;107.620;2023-05-09T04:45:15;10.23;;;8.05;;
59828;SDS011;45708;51.848;107.620;2023-05-09T04:50:17;10.38;;;7.47;;
59828;SDS011;45708;51.848;107.620;2023-05-09T04:55:18;10.93;;;8.23;;
59828;SDS011;45708;51.848;107.620;2023-05-09T05:00:19;10.38;;;8.00;;
59828;SDS011;45708;51.848;107.620;2023-05-09T05:05:20;12.27;;;7.82;;
59828;SDS011;45708;51.848;107.620;2023-05-09T05:10:21;12.85;;;7.85;;
59828;SDS011;45708;51.848;107.620;2023-05-09T05:15:22;12.93;;;8.85;;
59828;SDS011;45708;51.848;107.620;2023-05-09T05:20:23;9.25;;;7.45;;
59828;SDS011;45708;51.848;107.620;2023-05-09T05:25:24;14.27;;;9.18;;
59828;SDS011;45708;51.848;107.620;2023-05-09T05:30:25;12.90;;;9.10;;
59828;SDS011;45708;51.848;107.620;2023-05-09T05:35:26;13.63;;;7.70;;
59828;SDS011;45708;51.848;107.620;2023-05-09T05:40:27;10.43;;;7.82;;
59828;SDS011;45708;51.848;107.620;2023-05-09T05:45:27;14.13;;;8.23;;
59828;SDS011;45708;51.848;107.620;2023-05-09T05:50:28;10.10;;;7.40;;
59828;SDS011;45708;51.848;107.620;2023-05-09T05:55:29;11.50;;;7.97;;
59828;SDS011;45708;51.848;107.620;2023-05-09T06:00:30;14.65;;;8.40;;
59828;SDS011;45708;51.848;107.620;2023-05-09T06:05:30;11.65;;;7.90;;
59828;SDS011;45708;51.848;107.620;2023-05-09T06:10:32;10.13;;;7.43;;
59828;SDS011;45708;51.848;107.620;2023-05-09T06:15:32;11.75;;;8.40;;
59828;SDS011;45708;51.848;107.620;2023-05-09T06:20:33;14.32;;;7.47;;
59828;SDS011;45708;51.848;107.620;2023-05-09T06:25:34;13.27;;;8.45;;
59828;SDS011;45708;51.848;107.620;2023-05-09T06:30:35;11.90;;;7.82;;
59828;SDS011;45708;51.848;107.620;2023-05-09T06:35:35;10.02;;;7.55;;
59828;SDS011;45708;51.848;107.620;2023-05-09T06:40:36;10.45;;;7.68;;
59828;SDS011;45708;51.848;107.620;2023-05-09T06:45:37;9.98;;;7.07;;
59828;SDS011;45708;51.848;107.620;2023-05-09T06:50:38;10.88;;;7.45;;
59828;SDS011;45708;51.848;107.620;2023-05-09T06:55:38;10.82;;;7.13;;
59828;SDS011;45708;51.848;107.620;2023-05-09T07:00:40;11.15;;;8.25;;
59828;SDS011;45708;51.848;107.620;2023-05-09T07:05:41;12.82;;;7.30;;
59828;SDS011;45708;51.848;107.620;2023-05-09T07:10:42;14.45;;;8.10;;
59828;SDS011;45708;51.848;107.620;2023-05-09T07:15:43;12.05;;;8.10;;
59828;SDS011;45708;51.848;107.620;2023-05-09T07:20:44;9.77;;;8.07;;
59828;SDS011;45708;51.848;107.620;2023-05-09T07:25:45;13.50;;;7.85;;
59828;SDS011;45708;51.848;107.620;2023-05-09T07:30:45;14.40;;;8.23;;
59828;SDS011;45708;51.848;107.620;2023-05-09T07:35:46;14.95;;;7.72;;
59828;SDS011;45708;51.848;107.620;2023-05-09T07:40:47;12.68;;;7.88;;
59828;SDS011;45708;51.848;107.620;2023-05-09T07:45:48;9.30;;;7.07;;
59828;SDS011;45708;51.848;107.620;2023-05-09T07:50:49;11.13;;;8.32;;
59828;SDS011;45708;51.848;107.620;2023-05-09T07:55:49;15.02;;;8.95;;
59828;SDS011;45708;51.848;107.620;2023-05-09T08:00:53;9.82;;;7.85;;
59828;SDS011;45708;51.848;107.620;2023-05-09T08:05:55;11.85;;;7.88;;
59828;SDS011;45708;51.848;107.620;2023-05-09T08:10:56;9.43;;;7.22;;
59828;SDS011;45708;51.848;107.620;2023-05-09T08:15:57;10.82;;;7.43;;
59828;SDS011;45708;51.848;107.620;2023-05-09T08:20:58;10.63;;;7.35;;
59828;SDS011;45708;51.848;107.620;2023-05-09T08:25:58;10.75;;;7.72;;
59828;SDS011;45708;51.848;107.620;2023-05-09T08:30:59;13.23;;;8.65;;
59828;SDS011;45708;51.848;107.620;2023-05-09T08:36:00;13.43;;;8.32;;
59828;SDS011;45708;51.848;107.620;2023-05-09T08:41:01;11.35;;;8.80;;
59828;SDS011;45708;51.848;107.620;2023-05-09T08:46:03;14.75;;;8.60;;
59828;SDS011;45708;51.848;107.620;2023-05-09T08:51:07;13.38;;;9.80;;
59828;SDS011;45708;51.848;107.620;2023-05-09T08:56:09;14.90;;;9.43;;
59828;SDS011;45708;51.848;107.620;2023-05-09T09:01:13;14.52;;;10.50;;
59828;SDS011;45708;51.848;107.620;2023-05-09T09:06:15;13.23;;;9.18;;
59828;SDS011;45708;51.848;107.620;2023-05-09T09:11:16;17.70;;;10.48;;
59828;SDS011;45708;51.848;107.620;2023-05-09T09:16:18;14.48;;;10.05;;
59828;SDS011;45708;51.848;107.620;2023-05-09T09:21:21;12.85;;;9.18;;
59828;SDS011;45708;51.848;107.620;2023-05-09T09:26:21;15.30;;;10.18;;
59828;SDS011;45708;51.848;107.620;2023-05-09T09:31:26;14.90;;;9.75;;
59828;SDS011;45708;51.848;107.620;2023-05-09T09:36:31;14.27;;;9.30;;
59828;SDS011;45708;51.848;107.620;2023-05-09T09:41:33;13.70;;;9.65;;
59828;SDS011;45708;51.848;107.620;2023-05-09T09:46:42;12.75;;;8.98;;
59828;SDS011;45708;51.848;107.620;2023-05-09T09:51:44;13.43;;;9.48;;
59828;SDS011;45708;51.848;107.620;2023-05-09T09:56:49;14.13;;;9.38;;
59828;SDS011;45708;51.848;107.620;2023-05-09T10:01:54;22.55;;;13.65;;
59828;SDS011;45708;51.848;107.620;2023-05-09T10:07:04;13.73;;;10.05;;
59828;SDS011;45708;51.848;107.620;2023-05-09T10:12:07;12.23;;;9.45;;
59828;SDS011;45708;51.848;107.620;2023-05-09T10:17:08;16.50;;;10.30;;
59828;SDS011;45708;51.848;107.620;2023-05-09T10:22:13;16.30;;;11.00;;
59828;SDS011;45708;51.848;107.620;2023-05-09T10:27:16;15.98;;;10.52;;
59828;SDS011;45708;51.848;107.620;2023-05-09T10:32:25;15.73;;;9.52;;
59828;SDS011;45708;51.848;107.620;2023-05-09T10:37:31;13.48;;;9.43;;
59828;SDS011;45708;51.848;107.620;2023-05-09T10:42:32;22.63;;;11.25;;
59828;SDS011;45708;51.848;107.620;2023-05-09T10:47:33;18.45;;;11.57;;
59828;SDS011;45708;51.848;107.620;2023-05-09T10:53:20;15.63;;;10.20;;
59828;SDS011;45708;51.848;107.620;2023-05-09T11:03:23;18.05;;;12.35;;
59828;SDS011;45708;51.848;107.620;2023-05-09T11:08:29;17.40;;;11.68;;
59828;SDS011;45708;51.848;107.620;2023-05-09T11:13:30;15.32;;;11.45;;
59828;SDS011;45708;51.848;107.620;2023-05-09T11:18:47;15.45;;;11.18;;
59828;SDS011;45708;51.848;107.620;2023-05-09T11:23:50;22.38;;;16.55;;
59828;SDS011;45708;51.848;107.620;2023-05-09T11:28:51;24.00;;;15.30;;
59828;SDS011;45708;51.848;107.620;2023-05-09T11:33:53;24.48;;;15.60;;
59828;SDS011;45708;51.848;107.620;2023-05-09T11:44:01;23.60;;;12.95;;
59828;SDS011;45708;51.848;107.620;2023-05-09T11:49:05;22.30;;;12.85;;
59828;SDS011;45708;51.848;107.620;2023-05-09T11:54:07;19.05;;;11.63;;
59828;SDS011;45708;51.848;107.620;2023-05-09T11:59:08;19.45;;;11.45;;
59828;SDS011;45708;51.848;107.620;2023-05-09T12:04:09;19.45;;;10.68;;
59828;SDS011;45708;51.848;107.620;2023-05-09T12:09:10;20.42;;;9.88;;
59828;SDS011;45708;51.848;107.620;2023-05-09T12:14:11;16.88;;;10.50;;
59828;SDS011;45708;51.848;107.620;2023-05-09T12:19:26;14.38;;;9.45;;
59828;SDS011;45708;51.848;107.620;2023-05-09T12:24:28;12.95;;;9.20;;
59828;SDS011;45708;51.848;107.620;2023-05-09T12:29:29;15.20;;;9.60;;
59828;SDS011;45708;51.848;107.620;2023-05-09T12:34:30;16.52;;;11.07;;
59828;SDS011;45708;51.848;107.620;2023-05-09T12:39:32;17.98;;;10.30;;
59828;SDS011;45708;51.848;107.620;2023-05-09T12:44:32;25.00;;;15.02;;
59828;SDS011;45708;51.848;107.620;2023-05-09T12:49:35;20.65;;;12.32;;
59828;SDS011;45708;51.848;107.620;2023-05-09T12:54:36;17.45;;;12.20;;
59828;SDS011;45708;51.848;107.620;2023-05-09T12:59:42;24.30;;;14.07;;
59828;SDS011;45708;51.848;107.620;2023-05-09T13:04:43;23.73;;;13.48;;
59828;SDS011;45708;51.848;107.620;2023-05-09T13:09:53;16.52;;;11.70;;
59828;SDS011;45708;51.848;107.620;2023-05-09T13:14:55;19.98;;;12.50;;
59828;SDS011;45708;51.848;107.620;2023-05-09T13:19:55;24.67;;;17.52;;
59828;SDS011;45708;51.848;107.620;2023-05-09T13:24:56;18.27;;;12.63;;
59828;SDS011;45708;51.848;107.620;2023-05-09T13:29:57;16.58;;;11.10;;
59828;SDS011;45708;51.848;107.620;2023-05-09T13:34:59;17.80;;;11.27;;
59828;SDS011;45708;51.848;107.620;2023-05-09T13:40:00;23.38;;;11.65;;
59828;SDS011;45708;51.848;107.620;2023-05-09T13:45:01;28.17;;;13.38;;
59828;SDS011;45708;51.848;107.620;2023-05-09T13:50:02;26.85;;;12.27;;
59828;SDS011;45708;51.848;107.620;2023-05-09T13:55:04;23.02;;;12.50;;
59828;SDS011;45708;51.848;107.620;2023-05-09T14:00:05;25.02;;;12.30;;
59828;SDS011;45708;51.848;107.620;2023-05-09T14:05:06;22.50;;;11.95;;
59828;SDS011;45708;51.848;107.620;2023-05-09T14:10:07;26.85;;;13.85;;
59828;SDS011;45708;51.848;107.620;2023-05-09T14:15:08;22.42;;;11.75;;
59828;SDS011;45708;51.848;107.620;2023-05-09T14:20:09;22.65;;;10.98;;
59828;SDS011;45708;51.848;107.620;2023-05-09T14:25:11;23.42;;;12.05;;
59828;SDS011;45708;51.848;107.620;2023-05-09T14:30:12;24.48;;;11.85;;
59828;SDS011;45708;51.848;107.620;2023-05-09T14:35:13;22.05;;;11.85;;
59828;SDS011;45708;51.848;107.620;2023-05-09T14:40:13;34.83;;;13.10;;
59828;SDS011;45708;51.848;107.620;2023-05-09T14:45:14;19.10;;;11.23;;
59828;SDS011;45708;51.848;107.620;2023-05-09T14:50:15;20.45;;;11.63;;
59828;SDS011;45708;51.848;107.620;2023-05-09T14:55:16;18.65;;;11.05;;
59828;SDS011;45708;51.848;107.620;2023-05-09T15:00:18;17.77;;;11.32;;
59828;SDS011;45708;51.848;107.620;2023-05-09T15:05:19;21.02;;;10.18;;
59828;SDS011;45708;51.848;107.620;2023-05-09T15:10:20;21.05;;;12.18;;
59828;SDS011;45708;51.848;107.620;2023-05-09T15:15:21;23.42;;;12.50;;
59828;SDS011;45708;51.848;107.620;2023-05-09T15:20:22;29.58;;;14.93;;
59828;SDS011;45708;51.848;107.620;2023-05-09T15:25:23;22.88;;;11.95;;
59828;SDS011;45708;51.848;107.620;2023-05-09T15:30:24;21.00;;;12.10;;
59828;SDS011;45708;51.848;107.620;2023-05-09T15:35:25;25.15;;;14.10;;
59828;SDS011;45708;51.848;107.620;2023-05-09T15:40:26;23.85;;;13.15;;
59828;SDS011;45708;51.848;107.620;2023-05-09T15:45:27;24.02;;;12.63;;
59828;SDS011;45708;51.848;107.620;2023-05-09T15:50:28;30.38;;;16.35;;
59828;SDS011;45708;51.848;107.620;2023-05-09T15:55:30;30.55;;;14.10;;
59828;SDS011;45708;51.848;107.620;2023-05-09T16:00:31;31.65;;;15.65;;
59828;SDS011;45708;51.848;107.620;2023-05-09T16:05:32;28.00;;;15.90;;
59828;SDS011;45708;51.848;107.620;2023-05-09T16:10:33;35.30;;;17.42;;
59828;SDS011;45708;51.848;107.620;2023-05-09T16:15:34;34.05;;;19.13;;
59828;SDS011;45708;51.848;107.620;2023-05-09T16:20:34;34.30;;;17.77;;
59828;SDS011;45708;51.848;107.620;2023-05-09T16:25:35;35.22;;;17.92;;
59828;SDS011;45708;51.848;107.620;2023-05-09T16:30:36;38.00;;;18.83;;
59828;SDS011;45708;51.848;107.620;2023-05-09T16:35:37;36.05;;;18.52;;
59828;SDS011;45708;51.848;107.620;2023-05-09T16:40:38;33.13;;;16.98;;
59828;SDS011;45708;51.848;107.620;2023-05-09T16:45:39;35.47;;;19.40;;
59828;SDS011;45708;51.848;107.620;2023-05-09T16:50:40;32.45;;;18.98;;
59828;SDS011;45708;51.848;107.620;2023-05-09T16:55:41;31.52;;;19.00;;
59828;SDS011;45708;51.848;107.620;2023-05-09T17:00:41;32.85;;;18.05;;
59828;SDS011;45708;51.848;107.620;2023-05-09T17:05:42;35.15;;;19.27;;
59828;SDS011;45708;51.848;107.620;2023-05-09T17:10:43;35.30;;;19.00;;
59828;SDS011;45708;51.848;107.620;2023-05-09T17:15:44;35.03;;;19.83;;
59828;SDS011;45708;51.848;107.620;2023-05-09T17:20:44;39.08;;;20.40;;
59828;SDS011;45708;51.848;107.620;2023-05-09T17:25:45;41.72;;;20.27;;
59828;SDS011;45708;51.848;107.620;2023-05-09T17:30:46;39.10;;;20.73;;
59828;SDS011;45708;51.848;107.620;2023-05-09T17:35:47;36.13;;;18.17;;
59828;SDS011;45708;51.848;107.620;2023-05-09T17:40:48;39.13;;;19.75;;
59828;SDS011;45708;51.848;107.620;2023-05-09T17:45:49;34.38;;;18.13;;
59828;SDS011;45708;51.848;107.620;2023-05-09T17:50:50;41.63;;;20.70;;
59828;SDS011;45708;51.848;107.620;2023-05-09T17:55:51;39.80;;;18.95;;
59828;SDS011;45708;51.848;107.620;2023-05-09T18:00:52;35.58;;;19.38;;
59828;SDS011;45708;51.848;107.620;2023-05-09T18:05:53;39.60;;;20.35;;
59828;SDS011;45708;51.848;107.620;2023-05-09T18:10:54;36.47;;;20.15;;
59828;SDS011;45708;51.848;107.620;2023-05-09T18:15:56;39.40;;;20.40;;
59828;SDS011;45708;51.848;107.620;2023-05-09T18:20:57;39.47;;;19.40;;
59828;SDS011;45708;51.848;107.620;2023-05-09T18:25:58;48.58;;;20.70;;
59828;SDS011;45708;51.848;107.620;2023-05-09T18:30:59;35.00;;;18.17;;
59828;SDS011;45708;51.848;107.620;2023-05-09T18:36:00;32.90;;;18.70;;
59828;SDS011;45708;51.848;107.620;2023-05-09T18:41:00;30.13;;;17.00;;
59828;SDS011;45708;51.848;107.620;2023-05-09T18:46:01;35.65;;;18.30;;
59828;SDS011;45708;51.848;107.620;2023-05-09T18:51:02;41.65;;;18.52;;
59828;SDS011;45708;51.848;107.620;2023-05-09T18:56:03;34.58;;;18.27;;
59828;SDS011;45708;51.848;107.620;2023-05-09T19:01:04;34.58;;;17.92;;
59828;SDS011;45708;51.848;107.620;2023-05-09T19:06:05;43.58;;;21.33;;
59828;SDS011;45708;51.848;107.620;2023-05-09T19:11:06;37.42;;;20.38;;
59828;SDS011;45708;51.848;107.620;2023-05-09T19:16:06;41.75;;;20.80;;
59828;SDS011;45708;51.848;107.620;2023-05-09T19:21:07;39.35;;;21.60;;
59828;SDS011;45708;51.848;107.620;2023-05-09T19:26:08;44.65;;;19.67;;
59828;SDS011;45708;51.848;107.620;2023-05-09T19:31:09;33.92;;;19.38;;
59828;SDS011;45708;51.848;107.620;2023-05-09T19:36:10;36.42;;;19.67;;
59828;SDS011;45708;51.848;107.620;2023-05-09T19:41:10;32.35;;;18.10;;
59828;SDS011;45708;51.848;107.620;2023-05-09T19:46:11;39.50;;;20.35;;
59828;SDS011;45708;51.848;107.620;2023-05-09T19:51:12;40.30;;;20.33;;
59828;SDS011;45708;51.848;107.620;2023-05-09T19:56:13;35.78;;;20.50;;
59828;SDS011;45708;51.848;107.620;2023-05-09T20:01:15;36.70;;;20.77;;
59828;SDS011;45708;51.848;107.620;2023-05-09T20:06:17;37.30;;;19.65;;
59828;SDS011;45708;51.848;107.620;2023-05-09T20:11:18;41.92;;;20.80;;
59828;SDS011;45708;51.848;107.620;2023-05-09T20:16:19;36.67;;;19.67;;
59828;SDS011;45708;51.848;107.620;2023-05-09T20:21:19;34.85;;;18.60;;
59828;SDS011;45708;51.848;107.620;2023-05-09T20:26:20;36.40;;;19.25;;
59828;SDS011;45708;51.848;107.620;2023-05-09T20:31:21;31.63;;;16.92;;
59828;SDS011;45708;51.848;107.620;2023-05-09T20:36:22;37.35;;;19.23;;
59828;SDS011;45708;51.848;107.620;2023-05-09T20:41:23;32.30;;;17.50;;
59828;SDS011;45708;51.848;107.620;2023-05-09T20:46:24;45.22;;;25.00;;
59828;SDS011;45708;51.848;107.620;2023-05-09T20:51:25;46.65;;;23.20;;
59828;SDS011;45708;51.848;107.620;2023-05-09T20:56:26;50.35;;;28.38;;
59828;SDS011;45708;51.848;107.620;2023-05-09T21:01:26;43.55;;;23.10;;
59828;SDS011;45708;51.848;107.620;2023-05-09T21:06:28;38.95;;;21.50;;
59828;SDS011;45708;51.848;107.620;2023-05-09T21:11:29;36.70;;;22.05;;
59828;SDS011;45708;51.848;107.620;2023-05-09T21:16:30;38.50;;;22.17;;
59828;SDS011;45708;51.848;107.620;2023-05-09T21:21:31;36.45;;;20.83;;
59828;SDS011;45708;51.848;107.620;2023-05-09T21:26:31;34.90;;;20.00;;
59828;SDS011;45708;51.848;107.620;2023-05-09T21:31:32;36.42;;;19.75;;
59828;SDS011;45708;51.848;107.620;2023-05-09T21:36:33;35.92;;;20.65;;
59828;SDS011;45708;51.848;107.620;2023-05-09T21:41:35;38.95;;;20.40;;
59828;SDS011;45708;51.848;107.620;2023-05-09T21:46:37;39.40;;;19.10;;
59828;SDS011;45708;51.848;107.620;2023-05-09T21:51:38;34.70;;;19.35;;
59828;SDS011;45708;51.848;107.620;2023-05-09T21:56:38;36.40;;;19.40;;
59828;SDS011;45708;51.848;107.620;2023-05-09T22:01:39;36.63;;;20.60;;
59828;SDS011;45708;51.848;107.620;2023-05-09T22:06:40;37.78;;;19.63;;
59828;SDS011;45708;51.848;107.620;2023-05-09T22:11:41;42.80;;;24.40;;
59828;SDS011;45708;51.848;107.620;2023-05-09T22:16:42;38.00;;;23.13;;
59828;SDS011;45708;51.848;107.620;2023-05-09T22:21:43;35.45;;;21.55;;
59828;SDS011;45708;51.848;107.620;2023-05-09T22:26:44;34.72;;;19.73;;
59828;SDS011;45708;51.848;107.620;2023-05-09T22:31:45;35.38;;;23.08;;
59828;SDS011;45708;51.848;107.620;2023-05-09T22:36:46;32.75;;;20.30;;
59828;SDS011;45708;51.848;107.620;2023-05-09T22:41:47;35.88;;;19.95;;
59828;SDS011;45708;51.848;107.620;2023-05-09T22:46:47;39.08;;;22.75;;
59828;SDS011;45708;51.848;107.620;2023-05-09T22:51:48;35.00;;;20.88;;
59828;SDS011;45708;51.848;107.620;2023-05-09T22:56:51;35.67;;;19.95;;
59828;SDS011;45708;51.848;107.620;2023-05-09T23:01:51;38.75;;;20.88;;
59828;SDS011;45708;51.848;107.620;2023-05-09T23:06:52;54.95;;;40.28;;
59828;SDS011;45708;51.848;107.620;2023-05-09T23:11:53;30.60;;;19.23;;
59828;SDS011;45708;51.848;107.620;2023-05-09T23:16:54;34.58;;;19.17;;
59828;SDS011;45708;51.848;107.620;2023-05-09T23:21:54;31.45;;;19.25;;
59828;SDS011;45708;51.848;107.620;2023-05-09T23:26:55;38.58;;;20.30;;
59828;SDS011;45708;51.848;107.620;2023-05-09T23:31:56;39.92;;;21.20;;
59828;SDS011;45708;51.848;107.620;2023-05-09T23:36:57;40.42;;;20.85;;
59828;SDS011;45708;51.848;107.620;2023-05-09T23:41:58;42.97;;;22.33;;
59828;SDS011;45708;51.848;107.620;2023-05-09T23:46:58;37.60;;;20.08;;
59828;SDS011;45708;51.848;107.620;2023-05-09T23:51:59;42.00;;;21.25;;
59828;SDS011;45708;51.848;107.620;2023-05-09T23:57:00;43.97;;;22.67;;
